Time;durP1;ratioP1;P1;durP2;ratioP2;P2;SDS_P1;SDS_P2;PMS_P1;PMS_P2;Temp;Humidity;BMP_temperature;BMP_pressure;BME280_temperature;BME280_humidity;BME280_pressure;Samples;Min_cycle;Max_cycle;Signal;HPM_P1;HPM_P2
2023/03/11 00:00:18;;;;;;;0.70;0.70;;;0.40;99.90;;;;;;4945626;28;20092;-86
2023/03/11 00:02:46;;;;;;;0.80;0.80;;;0.10;99.90;;;;;;4947280;28;20034;-83
2023/03/11 00:05:21;;;;;;;0.65;0.65;;;0.00;99.90;;;;;;4946692;28;20451;-83
2023/03/11 00:07:47;;;;;;;0.80;0.80;;;0.00;99.90;;;;;;4944038;28;20113;-85
2023/03/11 00:10:19;;;;;;;0.70;0.70;;;2.20;99.90;;;;;;4957983;28;20046;-83
2023/03/11 00:12:44;;;;;;;0.55;0.55;;;0.00;99.90;;;;;;4958464;28;20523;-84
2023/03/11 00:15:13;;;;;;;0.80;0.80;;;-0.30;99.90;;;;;;4966209;28;20122;-85
2023/03/11 00:17:39;;;;;;;0.57;0.57;;;0.10;99.90;;;;;;4964311;28;20042;-84
2023/03/11 00:20:05;;;;;;;;;;;1.20;99.90;;;;;;4945232;28;20049;-84
2023/03/11 00:22:32;;;;;;;0.60;0.60;;;0.30;99.90;;;;;;4965307;28;19918;-87
2023/03/11 00:25:01;;;;;;;0.60;0.60;;;0.00;99.90;;;;;;4949311;28;20042;-85
2023/03/11 00:27:26;;;;;;;0.90;0.90;;;0.10;99.90;;;;;;4933250;28;20108;-87
2023/03/11 00:29:52;;;;;;;0.70;0.70;;;0.50;99.90;;;;;;4945338;28;20099;-86
2023/03/11 00:32:18;;;;;;;;;;;0.00;99.90;;;;;;4942093;28;20042;-85
2023/03/11 00:34:45;;;;;;;0.90;0.90;;;0.00;99.90;;;;;;4963873;28;19933;-83
2023/03/11 00:37:10;;;;;;;0.75;0.75;;;0.00;99.90;;;;;;4946832;28;20080;-84
2023/03/11 00:39:36;;;;;;;0.70;0.70;;;1.00;99.90;;;;;;4941128;28;20039;-83
2023/03/11 00:42:02;;;;;;;0.80;0.80;;;1.00;99.90;;;;;;4969797;28;20473;-85
2023/03/11 00:44:28;;;;;;;0.63;0.63;;;0.00;99.90;;;;;;4958200;28;20046;-85
2023/03/11 00:46:55;;;;;;;0.80;0.80;;;1.10;99.90;;;;;;4939381;28;20054;-85
2023/03/11 00:49:20;;;;;;;0.63;0.63;;;0.30;99.90;;;;;;4945167;28;20610;-85
2023/03/11 00:51:46;;;;;;;0.70;0.70;;;0.10;99.90;;;;;;4970515;28;20055;-85
2023/03/11 00:54:11;;;;;;;0.70;0.70;;;0.20;99.90;;;;;;4945668;28;20048;-85
2023/03/11 00:56:37;;;;;;;0.80;0.80;;;1.20;99.90;;;;;;4964266;28;20626;-85
2023/03/11 00:59:03;;;;;;;0.70;0.70;;;-0.40;99.90;;;;;;4947459;28;20099;-85
2023/03/11 01:01:29;;;;;;;0.80;0.80;;;0.00;99.90;;;;;;4945320;28;20035;-84
2023/03/11 01:03:54;;;;;;;0.80;0.80;;;0.00;99.90;;;;;;4959223;28;20395;-85
2023/03/11 01:06:20;;;;;;;0.85;0.85;;;-0.30;99.90;;;;;;4944230;28;20046;-83
2023/03/11 01:08:46;;;;;;;0.82;0.82;;;-0.10;99.90;;;;;;4928776;28;20051;-84
2023/03/11 01:11:11;;;;;;;0.80;0.80;;;0.00;99.90;;;;;;4943090;28;20122;-84
2023/03/11 01:13:39;;;;;;;0.73;0.73;;;-0.40;99.90;;;;;;4962964;28;20064;-83
2023/03/11 01:16:06;;;;;;;0.80;0.80;;;1.50;99.90;;;;;;4950151;28;20492;-85
2023/03/11 01:18:32;;;;;;;0.70;0.70;;;1.30;99.90;;;;;;4949196;28;20065;-85
2023/03/11 01:20:58;;;;;;;;;;;0.00;99.90;;;;;;4929010;28;20040;-85
2023/03/11 01:23:31;;;;;;;0.63;0.63;;;-0.10;99.90;;;;;;4950262;28;19929;-85
2023/03/11 01:25:57;;;;;;;0.80;0.80;;;1.30;99.90;;;;;;4932142;28;20043;-84
2023/03/11 01:28:23;;;;;;;0.60;0.60;;;-0.10;99.90;;;;;;4950898;28;20050;-85
2023/03/11 01:30:48;;;;;;;0.80;0.80;;;-0.20;99.90;;;;;;4956265;28;20043;-84
2023/03/11 01:33:18;;;;;;;0.75;0.75;;;-0.50;99.90;;;;;;4961244;28;20046;-83
2023/03/11 01:35:44;;;;;;;0.70;0.70;;;-0.40;99.90;;;;;;4947995;28;20107;-84
2023/03/11 01:38:11;;;;;;;0.80;0.80;;;0.00;99.90;;;;;;4968970;28;20039;-86
2023/03/11 01:40:38;;;;;;;0.80;0.80;;;0.00;99.90;;;;;;4997474;28;20038;-84
2023/03/11 01:43:48;;;;;;;0.68;0.68;;;-0.40;99.90;;;;;;4966533;28;20042;-84
2023/03/11 01:46:21;;;;;;;0.80;0.80;;;-0.10;99.90;;;;;;4965282;28;20047;-85
2023/03/11 01:48:51;;;;;;;0.50;0.50;;;-0.10;99.90;;;;;;4967866;28;20042;-84
2023/03/11 01:51:32;;;;;;;0.80;0.80;;;-0.30;99.90;;;;;;4966575;28;20043;-83
2023/03/11 01:54:02;;;;;;;0.70;0.70;;;-0.20;99.90;;;;;;4969140;28;20621;-85
2023/03/11 01:56:30;;;;;;;0.65;0.65;;;1.10;99.90;;;;;;4950982;28;20374;-83
2023/03/11 01:58:56;;;;;;;0.70;0.70;;;-0.50;99.90;;;;;;4952414;28;20048;-83
2023/03/11 02:01:23;;;;;;;0.80;0.80;;;-0.30;99.90;;;;;;4951006;28;20070;-83
2023/03/11 02:03:56;;;;;;;0.90;0.90;;;-0.60;99.90;;;;;;4964018;28;20540;-83
2023/03/11 02:06:24;;;;;;;0.70;0.70;;;-0.10;99.90;;;;;;4956621;28;20039;-83
2023/03/11 02:08:50;;;;;;;0.75;0.75;;;-0.40;99.90;;;;;;4948327;28;20477;-83
2023/03/11 02:11:25;;;;;;;0.70;0.70;;;-0.80;99.90;;;;;;4947454;28;20504;-82
2023/03/11 02:13:55;;;;;;;0.70;0.70;;;-0.70;99.90;;;;;;4957825;28;20073;-84
2023/03/11 02:16:23;;;;;;;0.70;0.70;;;-0.50;99.90;;;;;;4960300;28;20382;-85
2023/03/11 02:18:49;;;;;;;0.77;0.77;;;-0.50;99.90;;;;;;4951076;28;20381;-85
2023/03/11 02:21:21;;;;;;;0.73;0.73;;;-0.50;99.90;;;;;;4964722;28;20067;-84
2023/03/11 02:24:23;;;;;;;0.80;0.80;;;-0.40;99.90;;;;;;4961060;28;20071;-84
2023/03/11 02:27:05;;;;;;;0.80;0.80;;;-0.40;99.90;;;;;;4951574;28;20047;-85
2023/03/11 02:29:32;;;;;;;0.70;0.70;;;-0.40;99.90;;;;;;4965049;28;20074;-83
2023/03/11 02:32:01;;;;;;;0.70;0.70;;;-0.70;99.90;;;;;;4945788;28;20071;-83
2023/03/11 02:34:29;;;;;;;0.65;0.65;;;0.70;99.90;;;;;;4950911;28;20104;-84
2023/03/11 02:36:56;;;;;;;0.70;0.70;;;-0.70;99.90;;;;;;4965956;28;21389;-84
2023/03/11 02:39:32;;;;;;;0.80;0.80;;;-0.50;99.90;;;;;;4973924;28;20057;-83
2023/03/11 02:41:59;;;;;;;0.70;0.70;;;-0.50;99.90;;;;;;4958466;28;20051;-83
2023/03/11 02:44:25;;;;;;;0.68;0.68;;;-0.70;99.90;;;;;;4960270;28;20053;-83
2023/03/11 02:46:54;;;;;;;0.77;0.77;;;-0.60;99.90;;;;;;4963308;28;20047;-84
2023/03/11 02:49:21;;;;;;;0.80;0.80;;;-0.70;99.90;;;;;;4949646;28;20128;-84
2023/03/11 02:51:47;;;;;;;0.70;0.70;;;-0.40;99.90;;;;;;4951769;28;20104;-83
2023/03/11 02:54:13;;;;;;;0.80;0.80;;;-0.80;99.90;;;;;;4947943;28;20090;-84
2023/03/11 02:56:38;;;;;;;0.70;0.70;;;-0.10;99.90;;;;;;4930204;28;20067;-83
2023/03/11 02:59:04;;;;;;;0.90;0.90;;;-0.90;99.90;;;;;;5029619;28;20318;-84
2023/03/11 03:01:30;;;;;;;0.80;0.80;;;-1.20;99.90;;;;;;5036502;28;20088;-84
2023/03/11 03:03:56;;;;;;;0.70;0.70;;;-1.40;99.90;;;;;;4953114;28;20062;-85
2023/03/11 03:06:21;;;;;;;0.70;0.70;;;-1.20;99.90;;;;;;4946945;28;20129;-85
2023/03/11 03:08:47;;;;;;;0.60;0.60;;;-1.10;99.90;;;;;;4963794;28;20046;-84
2023/03/11 03:11:13;;;;;;;;;;;-1.30;99.90;;;;;;4978615;28;20049;-83
2023/03/11 03:13:38;;;;;;;0.80;0.80;;;-1.20;99.90;;;;;;4945757;28;19958;-83
2023/03/11 03:16:04;;;;;;;0.60;0.60;;;0.10;99.90;;;;;;4969395;28;20123;-83
2023/03/11 03:18:30;;;;;;;0.90;0.90;;;-1.40;99.90;;;;;;4963423;28;20049;-83
2023/03/11 03:20:56;;;;;;;0.80;0.80;;;-1.40;99.90;;;;;;4931563;28;20039;-84
2023/03/11 03:23:22;;;;;;;;;;;-0.60;99.90;;;;;;4930377;28;20039;-83
2023/03/11 03:25:47;;;;;;;0.70;0.70;;;-1.50;99.90;;;;;;4962562;28;19922;-83
2023/03/11 03:28:13;;;;;;;0.70;0.70;;;-2.00;99.90;;;;;;4933319;28;20047;-84
2023/03/11 03:30:39;;;;;;;0.85;0.85;;;-1.90;99.90;;;;;;4947006;28;20492;-84
2023/03/11 03:33:06;;;;;;;0.80;0.80;;;-1.20;99.90;;;;;;4962051;28;20050;-83
2023/03/11 03:35:32;;;;;;;0.70;0.70;;;-2.00;99.90;;;;;;4947567;28;20051;-84
2023/03/11 03:38:00;;;;;;;0.80;0.80;;;-1.70;99.90;;;;;;4945192;28;20043;-84
2023/03/11 03:40:26;;;;;;;0.70;0.70;;;-2.00;99.90;;;;;;4956221;28;20046;-83
2023/03/11 03:42:51;;;;;;;;;;;-1.80;99.90;;;;;;4963900;28;20054;-84
2023/03/11 03:45:17;;;;;;;0.88;0.88;;;-1.80;99.90;;;;;;4947546;28;20000;-84
2023/03/11 03:47:43;;;;;;;0.70;0.70;;;-1.80;99.90;;;;;;4964078;28;20053;-83
2023/03/11 03:50:09;;;;;;;;;;;-2.00;99.90;;;;;;4966616;28;20397;-83
2023/03/11 03:52:35;;;;;;;0.70;0.70;;;-1.70;99.90;;;;;;4967429;28;20394;-82
2023/03/11 03:55:05;;;;;;;0.80;0.80;;;-1.80;99.90;;;;;;4958863;28;20040;-83
2023/03/11 03:57:31;;;;;;;0.80;0.80;;;-1.70;99.90;;;;;;4971608;28;20045;-83
2023/03/11 04:00:00;;;;;;;0.80;0.80;;;-1.80;99.90;;;;;;4969416;28;20365;-83
2023/03/11 04:02:25;;;;;;;0.70;0.70;;;-1.80;99.90;;;;;;4967119;28;20047;-83
2023/03/11 04:04:55;;;;;;;0.80;0.80;;;-1.80;99.90;;;;;;4964007;28;20479;-83
2023/03/11 04:07:24;;;;;;;0.70;0.70;;;-1.90;99.90;;;;;;4946603;28;20047;-82
2023/03/11 04:09:49;;;;;;;0.80;0.80;;;-1.90;99.90;;;;;;4964211;28;20042;-84
2023/03/11 04:12:19;;;;;;;0.80;0.80;;;-1.90;99.90;;;;;;4947973;28;20054;-84
2023/03/11 04:14:44;;;;;;;0.80;0.80;;;-1.90;99.90;;;;;;4952534;28;20475;-84
2023/03/11 04:17:11;;;;;;;0.77;0.77;;;-1.80;99.90;;;;;;4960079;28;20130;-84
2023/03/11 04:19:38;;;;;;;0.80;0.80;;;-1.90;99.90;;;;;;4958572;28;20435;-85
2023/03/11 04:22:04;;;;;;;0.68;0.68;;;-2.00;99.90;;;;;;4943440;28;20097;-84
2023/03/11 04:24:29;;;;;;;;;;;-1.30;99.90;;;;;;4964653;28;20043;-83
2023/03/11 04:26:55;;;;;;;0.70;0.70;;;-2.00;99.90;;;;;;4962520;28;20430;-83
2023/03/11 04:29:20;;;;;;;;;;;-2.10;99.90;;;;;;4933164;28;20066;-83
2023/03/11 04:31:46;;;;;;;0.60;0.60;;;-2.00;99.90;;;;;;4960792;28;19926;-84
2023/03/11 04:34:12;;;;;;;;;;;-2.10;99.90;;;;;;4930425;28;20449;-84
2023/03/11 04:36:38;;;;;;;0.93;0.93;;;-2.00;99.90;;;;;;4964469;28;20370;-83
2023/03/11 04:39:03;;;;;;;;;;;-2.00;99.90;;;;;;4963031;28;20047;-83
2023/03/11 04:41:29;;;;;;;0.80;0.80;;;-2.10;99.90;;;;;;4985379;28;19929;-83
2023/03/11 04:43:55;;;;;;;0.85;0.85;;;-2.10;99.90;;;;;;4965718;28;20130;-83
2023/03/11 04:46:20;;;;;;;;;;;-2.20;99.90;;;;;;4949206;28;20049;-82
2023/03/11 04:48:46;;;;;;;0.88;0.88;;;-2.00;99.90;;;;;;4963187;28;19926;-83
2023/03/11 04:51:15;;;;;;;0.70;0.70;;;-2.50;99.90;;;;;;4980415;28;20036;-82
2023/03/11 04:53:40;;;;;;;0.95;0.95;;;-2.40;99.90;;;;;;4963243;28;20113;-82
2023/03/11 04:56:06;;;;;;;;;;;-2.10;99.90;;;;;;4932486;28;20645;-82
2023/03/11 04:58:32;;;;;;;1.00;1.00;;;-2.40;99.90;;;;;;4933711;28;19926;-82
2023/03/11 05:00:57;;;;;;;0.80;0.80;;;-1.40;99.90;;;;;;4967760;28;20063;-82
2023/03/11 05:03:23;;;;;;;;;;;-2.30;99.90;;;;;;4948726;28;20075;-84
2023/03/11 05:05:49;;;;;;;0.90;0.90;;;-2.50;99.90;;;;;;4965714;28;20328;-83
2023/03/11 05:08:14;;;;;;;;;;;-2.70;99.90;;;;;;4965130;28;20051;-83
2023/03/11 05:10:41;;;;;;;0.77;0.77;;;-1.90;99.90;;;;;;4950913;28;19945;-84
2023/03/11 05:13:07;;;;;;;0.80;0.80;;;-1.40;99.90;;;;;;4942506;28;20130;-85
2023/03/11 05:15:33;;;;;;;0.98;0.98;;;-2.20;99.90;;;;;;4959858;28;20129;-82
2023/03/11 05:17:59;;;;;;;;;;;-2.10;99.90;;;;;;4955107;28;20087;-84
2023/03/11 05:20:25;;;;;;;0.80;0.80;;;-1.60;99.90;;;;;;4948808;28;19961;-83
2023/03/11 05:22:51;;;;;;;0.60;0.60;;;-2.30;99.90;;;;;;4948536;28;20038;-84
2023/03/11 05:25:17;;;;;;;0.80;0.80;;;-2.30;99.90;;;;;;4950416;28;20050;-83
2023/03/11 05:27:51;;;;;;;0.70;0.70;;;-2.30;99.90;;;;;;4943314;29;20103;-83
2023/03/11 05:30:17;;;;;;;;;;;-2.80;99.90;;;;;;4931438;28;20476;-85
2023/03/11 05:32:43;;;;;;;0.90;0.90;;;-1.30;99.90;;;;;;4935138;28;19922;-83
2023/03/11 05:35:09;;;;;;;1.00;1.00;;;-2.40;99.90;;;;;;4948088;28;20077;-83
2023/03/11 05:37:38;;;;;;;0.80;0.80;;;-2.50;99.90;;;;;;4952788;28;20502;-84
2023/03/11 05:40:06;;;;;;;0.90;0.90;;;-2.80;99.90;;;;;;4963350;28;20035;-83
2023/03/11 05:42:33;;;;;;;0.80;0.80;;;-2.40;99.90;;;;;;4969057;28;20050;-83
2023/03/11 05:44:59;;;;;;;0.90;0.90;;;-0.70;99.90;;;;;;4950349;28;20054;-84
2023/03/11 05:47:25;;;;;;;0.60;0.60;;;-1.00;99.90;;;;;;4947844;28;20042;-83
2023/03/11 05:49:50;;;;;;;;;;;-2.80;99.90;;;;;;4962176;28;20086;-83
2023/03/11 05:52:16;;;;;;;0.90;0.90;;;-2.90;99.90;;;;;;4955840;28;19922;-84
2023/03/11 05:54:42;;;;;;;0.70;0.70;;;-2.60;99.90;;;;;;4974188;28;20050;-81
2023/03/11 05:57:08;;;;;;;0.93;0.93;;;-1.50;99.90;;;;;;4981875;28;20047;-81
2023/03/11 05:59:34;;;;;;;;;;;-1.30;99.90;;;;;;4947214;28;20187;-81
2023/03/11 06:02:00;;;;;;;0.70;0.70;;;-2.20;99.90;;;;;;4962937;28;19917;-85
2023/03/11 06:04:26;;;;;;;0.80;0.80;;;-2.30;99.90;;;;;;4964949;28;20051;-83
2023/03/11 06:06:52;;;;;;;0.73;0.73;;;-1.60;99.90;;;;;;4936708;28;20129;-83
2023/03/11 06:09:18;;;;;;;;;;;-2.70;99.90;;;;;;4935425;28;20134;-83
2023/03/11 06:11:43;;;;;;;0.80;0.80;;;-2.50;99.90;;;;;;4967683;28;19922;-84
2023/03/11 06:14:13;;;;;;;;;;;-3.00;99.90;;;;;;4963738;28;20054;-83
2023/03/11 06:16:40;;;;;;;0.85;0.85;;;-3.10;99.90;;;;;;4944069;28;19928;-84
2023/03/11 06:19:06;;;;;;;1.00;1.00;;;-2.30;99.90;;;;;;4950952;28;20047;-84
2023/03/11 06:21:32;;;;;;;;;;;-2.60;99.90;;;;;;4933594;28;20046;-83
2023/03/11 06:23:57;;;;;;;0.73;0.73;;;-1.60;99.90;;;;;;4929787;28;19919;-83
2023/03/11 06:26:23;;;;;;;0.80;0.80;;;-2.60;99.90;;;;;;4961557;28;20463;-83
2023/03/11 06:28:49;;;;;;;;;;;-2.50;99.90;;;;;;4965775;28;20050;-83
2023/03/11 06:31:21;;;;;;;0.82;0.82;;;-2.60;99.90;;;;;;4964927;28;20050;-83
2023/03/11 06:33:47;;;;;;;0.90;0.90;;;-2.60;99.90;;;;;;4962047;28;20448;-84
2023/03/11 06:36:14;;;;;;;1.50;1.40;;;-2.60;99.90;;;;;;4963123;28;20188;-83
2023/03/11 06:38:40;;;;;;;0.80;0.80;;;-2.50;99.90;;;;;;4966186;28;20129;-83
2023/03/11 06:41:07;;;;;;;0.90;0.90;;;-2.50;99.90;;;;;;4976585;28;20180;-84
2023/03/11 06:43:33;;;;;;;0.88;0.88;;;-2.50;99.90;;;;;;4966628;28;20117;-82
2023/03/11 06:46:00;;;;;;;1.02;1.02;;;-2.40;99.90;;;;;;4943762;28;20051;-84
2023/03/11 06:48:26;;;;;;;0.80;0.80;;;-1.80;99.90;;;;;;4963415;28;20042;-84
2023/03/11 06:50:57;;;;;;;0.73;0.73;;;-2.40;99.90;;;;;;4972260;28;20046;-82
2023/03/11 06:53:23;;;;;;;0.88;0.88;;;-2.40;99.90;;;;;;4961327;28;20207;-82
2023/03/11 06:56:01;;;;;;;0.80;0.80;;;-2.20;99.90;;;;;;4950553;28;20059;-83
2023/03/11 06:58:27;;;;;;;0.90;0.90;;;-1.20;99.90;;;;;;4964705;28;20050;-85
2023/03/11 07:00:53;;;;;;;0.90;0.90;;;-2.10;99.90;;;;;;4929500;28;20127;-84
2023/03/11 07:03:24;;;;;;;0.80;0.80;;;-2.20;99.90;;;;;;4963048;28;20079;-83
2023/03/11 07:05:50;;;;;;;0.90;0.90;;;-1.90;99.90;;;;;;4963398;28;20449;-83
2023/03/11 07:08:17;;;;;;;;;;;-1.80;99.90;;;;;;4951680;28;20752;-84
2023/03/11 07:10:43;;;;;;;0.70;0.70;;;-1.70;99.90;;;;;;4949645;28;19979;-83
2023/03/11 07:13:09;;;;;;;0.85;0.85;;;-1.30;99.90;;;;;;5034232;28;20047;-85
2023/03/11 07:15:35;;;;;;;0.70;0.70;;;-0.70;99.90;;;;;;4935667;28;20131;-86
2023/03/11 07:18:02;;;;;;;0.75;0.75;;;-1.60;99.90;;;;;;4916481;28;20035;-83
2023/03/11 07:20:27;;;;;;;0.90;0.90;;;-1.30;99.90;;;;;;4942152;28;20046;-83
2023/03/11 07:22:53;;;;;;;0.98;0.98;;;-1.20;99.90;;;;;;4934272;28;20051;-83
2023/03/11 07:25:19;;;;;;;5.93;3.70;;;-1.10;99.90;;;;;;4945358;28;20373;-84
2023/03/11 07:27:45;;;;;;;1.08;1.08;;;1.10;99.90;;;;;;5032616;28;20043;-84
2023/03/11 07:30:10;;;;;;;;;;;1.20;99.90;;;;;;4959956;28;20046;-83
2023/03/11 07:32:36;;;;;;;0.63;0.63;;;-0.80;99.90;;;;;;4951989;28;19926;-83
2023/03/11 07:35:02;;;;;;;;;;;-0.70;99.90;;;;;;4947817;28;20405;-83
2023/03/11 07:37:27;;;;;;;2.45;1.92;;;-0.60;99.90;;;;;;4962089;28;19945;-82
2023/03/11 07:39:54;;;;;;;0.80;0.80;;;-0.90;99.90;;;;;;4970504;28;20409;-83
2023/03/11 07:42:19;;;;;;;0.90;0.90;;;-0.40;99.90;;;;;;4951432;28;20039;-83
2023/03/11 07:44:45;;;;;;;0.70;0.70;;;-0.50;99.90;;;;;;4943689;28;20484;-84
2023/03/11 07:47:11;;;;;;;0.80;0.80;;;-0.40;99.90;;;;;;4931477;28;20377;-82
2023/03/11 07:49:37;;;;;;;0.73;0.73;;;1.10;99.90;;;;;;4945922;28;20126;-83
2023/03/11 07:52:02;;;;;;;0.70;0.70;;;-0.10;99.90;;;;;;5030770;28;20108;-83
2023/03/11 07:54:29;;;;;;;0.60;0.60;;;-0.10;99.90;;;;;;4940025;28;20096;-82
2023/03/11 07:56:55;;;;;;;1.10;1.10;;;0.00;99.90;;;;;;4914821;28;20050;-82
2023/03/11 07:59:21;;;;;;;0.80;0.80;;;0.90;99.90;;;;;;4946092;28;20044;-83
2023/03/11 08:01:47;;;;;;;0.82;0.82;;;0.20;99.90;;;;;;4963557;28;20038;-83
2023/03/11 08:04:15;;;;;;;1.08;1.05;;;-0.20;99.90;;;;;;4955767;28;20136;-83
2023/03/11 08:06:43;;;;;;;0.65;0.65;;;0.30;99.90;;;;;;4959645;28;20074;-83
2023/03/11 08:09:10;;;;;;;0.70;0.70;;;1.60;99.90;;;;;;4961680;28;20486;-83
2023/03/11 08:11:37;;;;;;;0.70;0.70;;;1.80;99.90;;;;;;4964525;28;20051;-82
2023/03/11 08:14:03;;;;;;;0.80;0.80;;;0.30;99.90;;;;;;4946905;28;20117;-83
2023/03/11 08:16:29;;;;;;;0.80;0.80;;;0.60;99.90;;;;;;4962231;28;20039;-82
2023/03/11 08:18:55;;;;;;;0.70;0.70;;;1.00;99.90;;;;;;4946673;28;20080;-83
2023/03/11 08:21:24;;;;;;;0.80;0.80;;;1.10;99.90;;;;;;4949199;28;20074;-82
2023/03/11 08:23:51;;;;;;;0.70;0.70;;;0.90;99.90;;;;;;4959737;28;20069;-84
2023/03/11 08:26:20;;;;;;;0.80;0.80;;;1.10;99.90;;;;;;4949995;28;20152;-83
2023/03/11 08:28:46;;;;;;;0.70;0.70;;;1.10;99.90;;;;;;4951020;28;20502;-82
2023/03/11 08:31:24;;;;;;;0.80;0.80;;;1.80;99.90;;;;;;4956110;28;20038;-83
2023/03/11 08:33:51;;;;;;;0.70;0.70;;;1.20;99.90;;;;;;4945421;28;20054;-83
2023/03/11 08:36:18;;;;;;;0.80;0.80;;;1.20;99.90;;;;;;4960764;28;20057;-83
2023/03/11 08:38:43;;;;;;;0.70;0.70;;;1.30;99.90;;;;;;4964008;28;20043;-83
2023/03/11 08:41:09;;;;;;;0.80;0.80;;;1.50;99.90;;;;;;4959572;28;20385;-84
2023/03/11 08:43:35;;;;;;;0.70;0.70;;;1.50;99.90;;;;;;4951157;28;20117;-83
2023/03/11 08:46:03;;;;;;;0.80;0.80;;;2.20;99.90;;;;;;4948877;28;20046;-83
2023/03/11 08:48:29;;;;;;;0.80;0.80;;;1.70;99.90;;;;;;4973392;28;20053;-83
2023/03/11 08:50:56;;;;;;;1.00;1.00;;;1.60;99.90;;;;;;4963023;28;20051;-83
2023/03/11 08:53:22;;;;;;;0.68;0.68;;;1.90;99.90;;;;;;4964244;28;20063;-84
2023/03/11 08:55:51;;;;;;;1.00;1.00;;;1.90;99.90;;;;;;4952082;28;20416;-82
2023/03/11 08:58:18;;;;;;;0.80;0.80;;;2.00;99.90;;;;;;4971522;28;20054;-83
2023/03/11 09:00:43;;;;;;;0.70;0.70;;;2.10;99.90;;;;;;4944936;28;20039;-83
2023/03/11 09:03:12;;;;;;;0.80;0.80;;;2.60;99.90;;;;;;4955452;28;20071;-84
2023/03/11 09:05:38;;;;;;;0.70;0.70;;;2.20;99.90;;;;;;4931510;28;20078;-85
2023/03/11 09:08:04;;;;;;;0.70;0.70;;;3.00;99.90;;;;;;5032896;28;20042;-84
2023/03/11 09:10:30;;;;;;;;;;;2.40;99.90;;;;;;4965016;28;20050;-84
2023/03/11 09:12:55;;;;;;;1.05;0.90;;;2.40;99.90;;;;;;4962652;28;19922;-86
2023/03/11 09:15:21;;;;;;;0.80;0.80;;;2.10;99.90;;;;;;4959889;28;20047;-85
2023/03/11 09:17:47;;;;;;;0.77;0.77;;;2.50;99.90;;;;;;4963541;28;20051;-86
2023/03/11 09:20:13;;;;;;;0.80;0.80;;;3.40;99.90;;;;;;5023100;28;20048;-86
2023/03/11 09:22:39;;;;;;;0.70;0.70;;;2.60;99.90;;;;;;4966647;28;20046;-84
2023/03/11 09:25:05;;;;;;;1.00;0.95;;;2.30;99.90;;;;;;4944085;28;20042;-84
2023/03/11 09:27:31;;;;;;;0.75;0.75;;;2.70;99.90;;;;;;4948278;28;20489;-85
2023/03/11 09:29:57;;;;;;;0.55;0.55;;;2.70;99.90;;;;;;4957008;28;20081;-86
2023/03/11 09:32:22;;;;;;;0.80;0.80;;;2.30;99.90;;;;;;4950021;28;20046;-86
2023/03/11 09:34:48;;;;;;;0.60;0.60;;;2.80;99.90;;;;;;4962981;28;20058;-84
2023/03/11 09:37:14;;;;;;;0.70;0.70;;;3.00;99.90;;;;;;4948002;28;20476;-85
2023/03/11 09:39:39;;;;;;;0.70;0.70;;;2.50;99.90;;;;;;4962677;28;20047;-83
2023/03/11 09:42:21;;;;;;;0.70;0.70;;;2.60;99.90;;;;;;4965679;28;20062;-85
2023/03/11 09:45:13;;;;;;;0.70;0.70;;;3.20;99.90;;;;;;4971581;28;20051;-84
2023/03/11 09:48:03;;;;;;;0.60;0.60;;;3.00;99.90;;;;;;4951019;28;20045;-84
2023/03/11 09:50:54;;;;;;;0.50;0.50;;;3.10;99.90;;;;;;4964910;28;20068;-83
2023/03/11 09:53:43;;;;;;;0.80;0.80;;;3.20;99.90;;;;;;4967117;28;20492;-83
2023/03/11 09:56:18;;;;;;;0.60;0.60;;;3.20;99.90;;;;;;4973669;28;20092;-85
2023/03/11 09:58:54;;;;;;;0.65;0.65;;;3.30;99.90;;;;;;4964627;28;20101;-84
2023/03/11 10:01:44;;;;;;;0.70;0.70;;;3.20;99.90;;;;;;4970895;28;20104;-84
2023/03/11 10:04:25;;;;;;;0.60;0.60;;;3.30;99.90;;;;;;4967185;28;20046;-86
2023/03/11 10:06:52;;;;;;;0.88;0.88;;;3.80;99.90;;;;;;4972792;28;20043;-85
2023/03/11 10:09:37;;;;;;;0.65;0.65;;;3.50;99.90;;;;;;4969165;28;20046;-85
2023/03/11 10:12:33;;;;;;;0.60;0.60;;;3.40;99.90;;;;;;4968609;28;20043;-86
2023/03/11 10:15:38;;;;;;;0.70;0.70;;;3.60;99.90;;;;;;4957938;28;20123;-84
2023/03/11 10:18:35;;;;;;;0.68;0.68;;;3.40;99.90;;;;;;4966697;28;20061;-84
2023/03/11 10:21:33;;;;;;;0.60;0.60;;;3.70;99.90;;;;;;4971252;28;20425;-85
2023/03/11 10:24:35;;;;;;;0.70;0.70;;;3.70;99.90;;;;;;4998178;28;20037;-84
2023/03/11 10:27:07;;;;;;;0.80;0.80;;;3.70;99.90;;;;;;4974187;28;20074;-84
2023/03/11 10:30:05;;;;;;;0.70;0.70;;;3.80;99.90;;;;;;4956288;28;20092;-85
2023/03/11 10:32:50;;;;;;;;;;;3.90;99.90;;;;;;4968038;28;20392;-86
2023/03/11 10:35:23;;;;;;;0.70;0.70;;;3.90;99.90;;;;;;4950199;28;20420;-86
2023/03/11 10:38:18;;;;;;;0.65;0.65;;;4.00;99.90;;;;;;4968979;28;20126;-85
2023/03/11 10:40:46;;;;;;;0.68;0.68;;;4.00;99.90;;;;;;4965199;28;20038;-86
2023/03/11 10:43:25;;;;;;;0.60;0.60;;;4.10;99.90;;;;;;4983022;28;20044;-85
2023/03/11 10:45:52;;;;;;;0.80;0.80;;;4.60;99.90;;;;;;4951381;28;20069;-85
2023/03/11 10:48:19;;;;;;;0.50;0.50;;;4.20;99.90;;;;;;4984417;28;20117;-85
2023/03/11 10:51:14;;;;;;;0.70;0.70;;;4.20;99.90;;;;;;4966371;28;20046;-85
2023/03/11 10:53:46;;;;;;;0.70;0.70;;;4.30;99.90;;;;;;4954863;28;20073;-86
2023/03/11 10:56:31;;;;;;;0.65;0.65;;;4.40;99.90;;;;;;4952345;28;20381;-85
2023/03/11 10:58:58;;;;;;;0.50;0.50;;;4.50;99.90;;;;;;4963624;28;20040;-87
2023/03/11 11:01:24;;;;;;;0.70;0.70;;;4.80;99.90;;;;;;4949700;28;20488;-85
2023/03/11 11:03:54;;;;;;;0.50;0.50;;;4.90;99.90;;;;;;4967317;28;20133;-85
2023/03/11 11:06:32;;;;;;;0.60;0.60;;;4.90;99.90;;;;;;4966117;28;20046;-86
2023/03/11 11:09:19;;;;;;;0.60;0.60;;;5.00;99.90;;;;;;4964032;28;20129;-85
2023/03/11 11:12:12;;;;;;;0.50;0.50;;;4.90;99.90;;;;;;4951038;28;20157;-85
2023/03/11 11:14:50;;;;;;;0.60;0.60;;;5.00;99.90;;;;;;4973538;28;20110;-84
2023/03/11 11:17:23;;;;;;;0.60;0.60;;;4.90;99.90;;;;;;4965735;28;20054;-85
2023/03/11 11:19:51;;;;;;;0.50;0.50;;;4.90;99.90;;;;;;4977486;28;20530;-85
2023/03/11 11:22:20;;;;;;;0.63;0.63;;;4.90;99.90;;;;;;4951381;28;20045;-85
2023/03/11 11:24:50;;;;;;;0.50;0.50;;;4.90;99.90;;;;;;4984213;28;20042;-86
2023/03/11 11:27:18;;;;;;;0.70;0.70;;;4.80;99.90;;;;;;4973715;28;20047;-85
2023/03/11 11:29:45;;;;;;;0.50;0.50;;;5.00;99.90;;;;;;4987139;28;20072;-85
2023/03/11 11:32:15;;;;;;;0.57;0.57;;;5.00;99.90;;;;;;4955817;28;20083;-86
2023/03/11 11:34:41;;;;;;;1.10;0.90;;;5.10;99.90;;;;;;4952282;28;20143;-86
2023/03/11 11:37:12;;;;;;;0.70;0.70;;;5.30;99.90;;;;;;4955464;28;20043;-88
2023/03/11 11:40:09;;;;;;;0.60;0.60;;;5.10;99.90;;;;;;4955287;28;20039;-86
2023/03/11 11:42:37;;;;;;;0.60;0.60;;;5.20;99.90;;;;;;4964208;28;20049;-87
2023/03/11 11:45:18;;;;;;;0.50;0.50;;;5.20;99.90;;;;;;4952737;28;20112;-87
2023/03/11 11:47:51;;;;;;;0.60;0.60;;;5.10;99.90;;;;;;4967735;28;20047;-88
2023/03/11 11:50:36;;;;;;;0.70;0.70;;;5.50;99.90;;;;;;4956146;28;20070;-87
2023/03/11 11:53:12;;;;;;;0.70;0.70;;;5.20;99.90;;;;;;4966542;28;20627;-87
2023/03/11 11:55:42;;;;;;;0.63;0.63;;;5.30;99.90;;;;;;4947761;28;20136;-87
2023/03/11 11:58:11;;;;;;;0.60;0.60;;;5.40;99.90;;;;;;4950893;28;20034;-86
2023/03/11 12:01:05;;;;;;;0.47;0.47;;;5.10;99.90;;;;;;4965114;28;20042;-86
2023/03/11 12:03:33;;;;;;;0.65;0.65;;;5.10;99.90;;;;;;4946976;28;20043;-87
2023/03/11 12:06:06;;;;;;;0.93;0.90;;;5.10;99.90;;;;;;4958608;28;20054;-88
2023/03/11 12:08:54;;;;;;;0.73;0.73;;;5.10;99.90;;;;;;4969853;28;20118;-87
2023/03/11 12:11:33;;;;;;;0.50;0.50;;;5.60;99.90;;;;;;4955536;28;20050;-87
2023/03/11 12:14:13;;;;;;;0.60;0.60;;;5.60;99.90;;;;;;4966996;28;20091;-87
2023/03/11 12:16:51;;;;;;;0.60;0.60;;;5.50;99.90;;;;;;5057305;28;20034;-87
2023/03/11 12:19:29;;;;;;;0.65;0.65;;;6.10;99.90;;;;;;4967385;28;20043;-86
2023/03/11 12:22:13;;;;;;;0.60;0.60;;;5.60;99.90;;;;;;4990460;28;20031;-88
2023/03/11 12:24:58;;;;;;;0.60;0.60;;;5.60;99.90;;;;;;4976031;28;20153;-87
2023/03/11 12:27:40;;;;;;;0.60;0.60;;;5.50;99.90;;;;;;4947116;28;20538;-87
2023/03/11 12:30:22;;;;;;;0.60;0.60;;;5.50;99.90;;;;;;4947824;28;20530;-86
2023/03/11 12:33:08;;;;;;;0.55;0.55;;;5.50;99.90;;;;;;4951458;28;20050;-88
2023/03/11 12:35:35;;;;;;;0.63;0.63;;;5.60;99.90;;;;;;4964466;28;20047;-87
2023/03/11 12:38:38;;;;;;;0.70;0.70;;;5.70;99.90;;;;;;4953999;28;20084;-87
2023/03/11 12:41:06;;;;;;;0.68;0.68;;;5.90;99.90;;;;;;4962442;28;20045;-86
2023/03/11 12:43:34;;;;;;;0.63;0.63;;;5.70;99.90;;;;;;4969207;28;20070;-86
2023/03/11 12:46:04;;;;;;;0.60;0.60;;;5.50;99.90;;;;;;4971965;28;20100;-86
2023/03/11 12:48:44;;;;;;;0.60;0.60;;;5.50;99.90;;;;;;4943770;28;20368;-87
2023/03/11 12:51:25;;;;;;;0.50;0.50;;;5.50;99.90;;;;;;4964435;28;20395;-86
2023/03/11 12:53:52;;;;;;;0.60;0.60;;;5.60;99.90;;;;;;4967515;28;20392;-85
2023/03/11 12:56:24;;;;;;;0.50;0.50;;;5.50;99.90;;;;;;4963226;28;20053;-86
2023/03/11 12:59:17;;;;;;;0.50;0.50;;;5.70;99.90;;;;;;4968348;28;20066;-87
2023/03/11 13:02:06;;;;;;;0.60;0.60;;;5.70;99.90;;;;;;4964336;28;20046;-87
2023/03/11 13:05:09;;;;;;;0.70;0.70;;;5.90;99.90;;;;;;4947394;28;20047;-85
2023/03/11 13:07:50;;;;;;;0.55;0.55;;;5.90;99.90;;;;;;4956780;28;20103;-86
2023/03/11 13:10:38;;;;;;;0.63;0.63;;;5.90;99.90;;;;;;4961658;28;20573;-86
2023/03/11 13:13:30;;;;;;;0.50;0.50;;;6.00;99.90;;;;;;4973152;28;20097;-85
2023/03/11 13:15:56;;;;;;;0.50;0.50;;;6.00;99.90;;;;;;4960533;28;20450;-87